sensor_id;sensor_type;location;lat;lon;timestamp;pressure;altitude;pressure_sealevel;temperature;humidity
62600;BME280;48671;48.922;2.346;2023-05-03T00:00:31;102319.50;;;14.28;53.72
62600;BME280;48671;48.922;2.346;2023-05-03T00:02:57;102329.25;;;14.23;53.57
62600;BME280;48671;48.922;2.346;2023-05-03T00:05:22;102310.06;;;14.22;53.66
62600;BME280;48671;48.922;2.346;2023-05-03T00:07:49;102317.03;;;14.22;53.77
62600;BME280;48671;48.922;2.346;2023-05-03T00:10:14;102306.66;;;14.19;53.62
62600;BME280;48671;48.922;2.346;2023-05-03T00:12:41;102304.13;;;14.16;53.64
62600;BME280;48671;48.922;2.346;2023-05-03T00:15:07;102293.72;;;14.14;53.67
62600;BME280;48671;48.922;2.346;2023-05-03T00:17:33;102299.00;;;14.13;53.80
62600;BME280;48671;48.922;2.346;2023-05-03T00:19:58;102292.16;;;14.07;53.89
62600;BME280;48671;48.922;2.346;2023-05-03T00:22:25;102293.94;;;14.07;53.72
62600;BME280;48671;48.922;2.346;2023-05-03T00:24:51;102301.88;;;14.03;53.68
62600;BME280;48671;48.922;2.346;2023-05-03T00:27:17;102306.06;;;14.09;53.78
62600;BME280;48671;48.922;2.346;2023-05-03T00:29:42;102313.72;;;14.17;53.47
62600;BME280;48671;48.922;2.346;2023-05-03T00:32:08;102311.19;;;14.14;53.18
62600;BME280;48671;48.922;2.346;2023-05-03T00:34:35;102311.25;;;14.11;53.22
62600;BME280;48671;48.922;2.346;2023-05-03T00:37:00;102311.44;;;14.04;52.88
62600;BME280;48671;48.922;2.346;2023-05-03T00:39:30;102305.59;;;13.95;53.11
62600;BME280;48671;48.922;2.346;2023-05-03T00:41:57;102320.22;;;14.02;53.13
62600;BME280;48671;48.922;2.346;2023-05-03T00:44:22;102302.25;;;13.90;52.88
62600;BME280;48671;48.922;2.346;2023-05-03T00:46:48;102306.59;;;13.91;53.07
62600;BME280;48671;48.922;2.346;2023-05-03T00:49:13;102299.91;;;13.79;53.20
62600;BME280;48671;48.922;2.346;2023-05-03T00:51:39;102298.19;;;13.78;53.25
62600;BME280;48671;48.922;2.346;2023-05-03T00:54:06;102298.16;;;13.79;53.22
62600;BME280;48671;48.922;2.346;2023-05-03T00:56:31;102296.50;;;13.77;53.46
62600;BME280;48671;48.922;2.346;2023-05-03T00:58:58;102292.38;;;13.67;53.28
62600;BME280;48671;48.922;2.346;2023-05-03T01:01:23;102283.91;;;13.58;53.54
62600;BME280;48671;48.922;2.346;2023-05-03T01:03:49;102297.88;;;13.57;53.26
62600;BME280;48671;48.922;2.346;2023-05-03T01:11:40;102294.00;;;13.38;53.75
62600;BME280;48671;48.922;2.346;2023-05-03T01:14:40;102269.13;;;13.22;53.88
62600;BME280;48671;48.922;2.346;2023-05-03T01:17:13;102284.75;;;13.25;53.82
62600;BME280;48671;48.922;2.346;2023-05-03T01:19:43;102291.63;;;13.27;53.92
62600;BME280;48671;48.922;2.346;2023-05-03T01:22:37;102289.25;;;13.18;54.05
62600;BME280;48671;48.922;2.346;2023-05-03T01:25:08;102285.94;;;13.10;54.38
62600;BME280;48671;48.922;2.346;2023-05-03T01:27:35;102288.56;;;13.10;54.13
62600;BME280;48671;48.922;2.346;2023-05-03T01:30:06;102294.63;;;13.10;54.20
62600;BME280;48671;48.922;2.346;2023-05-03T01:35:28;102299.13;;;13.05;54.46
62600;BME280;48671;48.922;2.346;2023-05-03T01:37:55;102300.00;;;13.04;54.29
62600;BME280;48671;48.922;2.346;2023-05-03T01:40:22;102294.84;;;13.03;54.43
62600;BME280;48671;48.922;2.346;2023-05-03T01:42:49;102304.44;;;13.01;54.34
62600;BME280;48671;48.922;2.346;2023-05-03T01:45:17;102284.66;;;12.92;54.03
62600;BME280;48671;48.922;2.346;2023-05-03T01:47:42;102284.50;;;12.98;53.73
62600;BME280;48671;48.922;2.346;2023-05-03T01:50:08;102302.69;;;13.01;54.02
62600;BME280;48671;48.922;2.346;2023-05-03T01:52:33;102296.75;;;12.95;53.94
62600;BME280;48671;48.922;2.346;2023-05-03T01:54:58;102306.22;;;13.00;53.79
62600;BME280;48671;48.922;2.346;2023-05-03T01:57:24;102300.97;;;13.00;53.65
62600;BME280;48671;48.922;2.346;2023-05-03T01:59:49;102296.75;;;12.95;53.58
62600;BME280;48671;48.922;2.346;2023-05-03T02:02:15;102308.09;;;12.94;54.01
62600;BME280;48671;48.922;2.346;2023-05-03T02:04:40;102311.50;;;12.97;53.89
62600;BME280;48671;48.922;2.346;2023-05-03T02:07:05;102304.69;;;12.92;53.76
62600;BME280;48671;48.922;2.346;2023-05-03T02:09:31;102308.09;;;12.94;53.49
62600;BME280;48671;48.922;2.346;2023-05-03T02:11:56;102306.56;;;12.85;53.74
62600;BME280;48671;48.922;2.346;2023-05-03T02:14:21;102311.16;;;12.75;53.79
62600;BME280;48671;48.922;2.346;2023-05-03T02:16:47;102310.28;;;12.75;53.83
62600;BME280;48671;48.922;2.346;2023-05-03T02:19:12;102296.34;;;12.76;53.92
62600;BME280;48671;48.922;2.346;2023-05-03T02:21:38;102306.72;;;12.79;53.68
62600;BME280;48671;48.922;2.346;2023-05-03T02:24:03;102298.03;;;12.77;53.96
62600;BME280;48671;48.922;2.346;2023-05-03T02:26:29;102302.28;;;12.82;53.80
62600;BME280;48671;48.922;2.346;2023-05-03T02:28:54;102292.78;;;12.78;53.79
62600;BME280;48671;48.922;2.346;2023-05-03T02:31:23;102307.56;;;12.79;53.81
62600;BME280;48671;48.922;2.346;2023-05-03T02:33:48;102307.66;;;12.75;53.67
62600;BME280;48671;48.922;2.346;2023-05-03T02:36:14;102305.28;;;12.65;53.86
62600;BME280;48671;48.922;2.346;2023-05-03T02:38:39;102290.59;;;12.58;54.02
62600;BME280;48671;48.922;2.346;2023-05-03T02:41:04;102287.31;;;12.50;53.60
62600;BME280;48671;48.922;2.346;2023-05-03T02:43:30;102293.63;;;12.40;54.34
62600;BME280;48671;48.922;2.346;2023-05-03T02:45:55;102296.25;;;12.40;53.99
62600;BME280;48671;48.922;2.346;2023-05-03T02:48:21;102290.09;;;12.43;54.47
62600;BME280;48671;48.922;2.346;2023-05-03T02:50:46;102293.59;;;12.41;54.53
62600;BME280;48671;48.922;2.346;2023-05-03T02:53:12;102301.53;;;12.35;54.43
62600;BME280;48671;48.922;2.346;2023-05-03T02:55:38;102295.63;;;12.27;54.64
62600;BME280;48671;48.922;2.346;2023-05-03T02:58:04;102293.09;;;12.24;54.28
62600;BME280;48671;48.922;2.346;2023-05-03T03:00:29;102285.34;;;12.19;54.63
62600;BME280;48671;48.922;2.346;2023-05-03T03:02:54;102288.03;;;12.16;54.68
62600;BME280;48671;48.922;2.346;2023-05-03T03:05:20;102296.78;;;12.14;54.80
62600;BME280;48671;48.922;2.346;2023-05-03T03:07:45;102288.22;;;12.07;54.80
62600;BME280;48671;48.922;2.346;2023-05-03T03:10:10;102286.53;;;12.03;54.80
62600;BME280;48671;48.922;2.346;2023-05-03T03:12:37;102288.44;;;11.95;55.14
62600;BME280;48671;48.922;2.346;2023-05-03T03:15:03;102278.91;;;11.94;55.10
62600;BME280;48671;48.922;2.346;2023-05-03T03:17:29;102274.50;;;11.96;55.01
62600;BME280;48671;48.922;2.346;2023-05-03T03:19:54;102284.81;;;12.02;54.94
62600;BME280;48671;48.922;2.346;2023-05-03T03:22:19;102261.47;;;11.96;55.36
62600;BME280;48671;48.922;2.346;2023-05-03T03:24:45;102275.28;;;12.01;54.84
62600;BME280;48671;48.922;2.346;2023-05-03T03:27:10;102268.44;;;11.95;54.91
62600;BME280;48671;48.922;2.346;2023-05-03T03:29:35;102263.25;;;11.94;55.08
62600;BME280;48671;48.922;2.346;2023-05-03T03:32:01;102249.50;;;11.83;55.16
62600;BME280;48671;48.922;2.346;2023-05-03T03:34:26;102249.56;;;11.80;55.40
62600;BME280;48671;48.922;2.346;2023-05-03T03:36:51;102250.63;;;11.71;55.46
62600;BME280;48671;48.922;2.346;2023-05-03T03:39:17;102242.03;;;11.66;55.51
62600;BME280;48671;48.922;2.346;2023-05-03T03:41:42;102256.66;;;11.75;55.80
62600;BME280;48671;48.922;2.346;2023-05-03T03:44:08;102249.72;;;11.72;55.55
62600;BME280;48671;48.922;2.346;2023-05-03T03:46:33;102248.78;;;11.76;55.81
62600;BME280;48671;48.922;2.346;2023-05-03T03:48:59;102260.00;;;11.80;55.60
62600;BME280;48671;48.922;2.346;2023-05-03T03:51:24;102244.31;;;11.84;55.56
62600;BME280;48671;48.922;2.346;2023-05-03T03:53:51;102253.88;;;11.84;55.47
62600;BME280;48671;48.922;2.346;2023-05-03T03:56:16;102247.00;;;11.78;55.41
62600;BME280;48671;48.922;2.346;2023-05-03T03:58:41;102253.97;;;11.78;55.41
62600;BME280;48671;48.922;2.346;2023-05-03T04:01:06;102253.19;;;11.72;55.44
62600;BME280;48671;48.922;2.346;2023-05-03T04:03:32;102245.47;;;11.66;55.74
62600;BME280;48671;48.922;2.346;2023-05-03T04:05:57;102258.63;;;11.60;55.85
62600;BME280;48671;48.922;2.346;2023-05-03T04:08:22;102255.41;;;11.46;55.76
62600;BME280;48671;48.922;2.346;2023-05-03T04:10:48;102262.44;;;11.42;55.98
62600;BME280;48671;48.922;2.346;2023-05-03T04:13:13;102246.19;;;11.28;56.01
62600;BME280;48671;48.922;2.346;2023-05-03T04:15:38;102260.78;;;11.37;56.36
62600;BME280;48671;48.922;2.346;2023-05-03T04:18:04;102270.44;;;11.32;56.38
62600;BME280;48671;48.922;2.346;2023-05-03T04:20:30;102260.94;;;11.28;56.62
62600;BME280;48671;48.922;2.346;2023-05-03T04:22:57;102257.53;;;11.24;56.93
62600;BME280;48671;48.922;2.346;2023-05-03T04:25:22;102261.06;;;11.20;57.57
62600;BME280;48671;48.922;2.346;2023-05-03T04:27:50;102242.19;;;11.07;56.88
62600;BME280;48671;48.922;2.346;2023-05-03T04:30:15;102246.44;;;11.11;56.81
62600;BME280;48671;48.922;2.346;2023-05-03T04:32:42;102244.69;;;11.13;57.34
62600;BME280;48671;48.922;2.346;2023-05-03T04:35:08;102255.91;;;11.17;57.07
62600;BME280;48671;48.922;2.346;2023-05-03T04:37:38;102240.38;;;11.12;57.02
62600;BME280;48671;48.922;2.346;2023-05-03T04:40:05;102256.72;;;11.20;56.79
62600;BME280;48671;48.922;2.346;2023-05-03T04:42:37;102256.78;;;11.17;57.18
62600;BME280;48671;48.922;2.346;2023-05-03T04:45:03;102255.31;;;11.01;57.56
62600;BME280;48671;48.922;2.346;2023-05-03T04:47:29;102247.72;;;10.87;57.28
62600;BME280;48671;48.922;2.346;2023-05-03T04:49:54;102262.50;;;10.85;58.07
62600;BME280;48671;48.922;2.346;2023-05-03T04:52:20;102265.03;;;10.90;59.62
62600;BME280;48671;48.922;2.346;2023-05-03T04:54:46;102263.00;;;11.09;58.01
62600;BME280;48671;48.922;2.346;2023-05-03T04:57:11;102259.66;;;11.02;57.79
62600;BME280;48671;48.922;2.346;2023-05-03T04:59:37;102261.41;;;11.00;57.52
62600;BME280;48671;48.922;2.346;2023-05-03T05:02:02;102258.94;;;10.91;57.76
62600;BME280;48671;48.922;2.346;2023-05-03T05:04:27;102264.22;;;10.86;57.53
62600;BME280;48671;48.922;2.346;2023-05-03T05:06:53;102260.69;;;10.89;58.30
62600;BME280;48671;48.922;2.346;2023-05-03T05:09:36;102270.22;;;10.91;58.10
62600;BME280;48671;48.922;2.346;2023-05-03T05:12:02;102265.91;;;10.90;58.11
62600;BME280;48671;48.922;2.346;2023-05-03T05:14:29;102279.63;;;10.98;58.16
62600;BME280;48671;48.922;2.346;2023-05-03T05:16:55;102273.56;;;10.98;58.17
62600;BME280;48671;48.922;2.346;2023-05-03T05:19:21;102287.44;;;11.00;58.10
62600;BME280;48671;48.922;2.346;2023-05-03T05:21:46;102270.06;;;11.02;58.20
62600;BME280;48671;48.922;2.346;2023-05-03T05:24:12;102267.38;;;11.07;58.32
62600;BME280;48671;48.922;2.346;2023-05-03T05:26:37;102263.88;;;11.09;57.89
62600;BME280;48671;48.922;2.346;2023-05-03T05:29:03;102259.44;;;11.14;58.19
62600;BME280;48671;48.922;2.346;2023-05-03T05:31:28;102263.81;;;11.12;57.80
62600;BME280;48671;48.922;2.346;2023-05-03T05:33:54;102255.97;;;11.14;58.12
62600;BME280;48671;48.922;2.346;2023-05-03T05:36:19;102254.06;;;11.23;57.37
62600;BME280;48671;48.922;2.346;2023-05-03T05:38:44;102249.66;;;11.27;57.57
62600;BME280;48671;48.922;2.346;2023-05-03T05:41:10;102252.97;;;11.38;57.92
62600;BME280;48671;48.922;2.346;2023-05-03T05:43:36;102271.25;;;11.35;57.36
62600;BME280;48671;48.922;2.346;2023-05-03T05:46:01;102274.75;;;11.33;57.33
62600;BME280;48671;48.922;2.346;2023-05-03T05:48:26;102271.22;;;11.37;57.80
62600;BME280;48671;48.922;2.346;2023-05-03T05:50:52;102266.91;;;11.36;57.21
62600;BME280;48671;48.922;2.346;2023-05-03T05:53:17;102272.00;;;11.40;57.59
62600;BME280;48671;48.922;2.346;2023-05-03T05:55:42;102273.72;;;11.43;57.50
62600;BME280;48671;48.922;2.346;2023-05-03T05:58:08;102268.44;;;11.46;57.07
62600;BME280;48671;48.922;2.346;2023-05-03T06:00:34;102264.03;;;11.49;57.68
62600;BME280;48671;48.922;2.346;2023-05-03T06:02:59;102281.22;;;11.61;57.26
62600;BME280;48671;48.922;2.346;2023-05-03T06:05:25;102264.00;;;11.53;57.27
62600;BME280;48671;48.922;2.346;2023-05-03T06:07:50;102282.88;;;11.65;57.39
62600;BME280;48671;48.922;2.346;2023-05-03T06:10:16;102264.53;;;11.71;57.48
62600;BME280;48671;48.922;2.346;2023-05-03T06:12:41;102265.28;;;11.78;57.03
62600;BME280;48671;48.922;2.346;2023-05-03T06:15:07;102289.34;;;11.92;56.84
62600;BME280;48671;48.922;2.346;2023-05-03T06:17:33;102278.78;;;12.00;56.96
62600;BME280;48671;48.922;2.346;2023-05-03T06:19:58;102282.88;;;12.12;56.92
62600;BME280;48671;48.922;2.346;2023-05-03T06:22:24;102269.78;;;12.15;56.40
62600;BME280;48671;48.922;2.346;2023-05-03T06:24:49;102257.66;;;12.12;56.00
62600;BME280;48671;48.922;2.346;2023-05-03T06:27:15;102268.75;;;12.24;56.07
62600;BME280;48671;48.922;2.346;2023-05-03T06:29:40;102261.78;;;12.24;56.32
62600;BME280;48671;48.922;2.346;2023-05-03T06:32:08;102256.50;;;12.26;55.90
62600;BME280;48671;48.922;2.346;2023-05-03T06:34:33;102262.38;;;12.35;56.28
62600;BME280;48671;48.922;2.346;2023-05-03T06:36:59;102259.81;;;12.34;56.58
62600;BME280;48671;48.922;2.346;2023-05-03T06:39:24;102263.16;;;12.40;56.54
62600;BME280;48671;48.922;2.346;2023-05-03T06:41:50;102257.81;;;12.47;56.40
62600;BME280;48671;48.922;2.346;2023-05-03T06:44:15;102256.66;;;12.60;56.10
62600;BME280;48671;48.922;2.346;2023-05-03T06:46:40;102268.72;;;12.64;55.90
62600;BME280;48671;48.922;2.346;2023-05-03T06:49:06;102265.16;;;12.68;55.58
62600;BME280;48671;48.922;2.346;2023-05-03T06:51:32;102258.22;;;12.67;55.70
62600;BME280;48671;48.922;2.346;2023-05-03T06:53:59;102260.75;;;12.70;55.77
62600;BME280;48671;48.922;2.346;2023-05-03T06:56:26;102272.72;;;12.80;55.20
62600;BME280;48671;48.922;2.346;2023-05-03T06:58:53;102266.50;;;12.86;55.68
62600;BME280;48671;48.922;2.346;2023-05-03T07:01:18;102259.38;;;12.93;55.11
62600;BME280;48671;48.922;2.346;2023-05-03T07:03:45;102252.13;;;13.04;55.12
62600;BME280;48671;48.922;2.346;2023-05-03T07:06:10;102254.50;;;13.13;54.64
62600;BME280;48671;48.922;2.346;2023-05-03T07:08:35;102241.44;;;13.15;54.86
62600;BME280;48671;48.922;2.346;2023-05-03T07:11:01;102245.50;;;13.26;55.18
62600;BME280;48671;48.922;2.346;2023-05-03T07:13:26;102238.25;;;13.38;54.33
62600;BME280;48671;48.922;2.346;2023-05-03T07:15:51;102246.03;;;13.39;53.10
62600;BME280;48671;48.922;2.346;2023-05-03T07:18:17;102240.75;;;13.42;53.89
62600;BME280;48671;48.922;2.346;2023-05-03T07:20:42;102234.59;;;13.43;53.96
62600;BME280;48671;48.922;2.346;2023-05-03T07:23:07;102227.50;;;13.48;53.92
62600;BME280;48671;48.922;2.346;2023-05-03T07:25:33;102229.75;;;13.62;54.14
62600;BME280;48671;48.922;2.346;2023-05-03T07:27:58;102219.81;;;13.75;54.04
62600;BME280;48671;48.922;2.346;2023-05-03T07:30:24;102226.19;;;13.96;52.99
62600;BME280;48671;48.922;2.346;2023-05-03T07:32:50;102235.13;;;14.18;53.15
62600;BME280;48671;48.922;2.346;2023-05-03T07:35:15;102221.75;;;14.29;52.24
62600;BME280;48671;48.922;2.346;2023-05-03T07:37:41;102231.16;;;14.35;50.13
62600;BME280;48671;48.922;2.346;2023-05-03T07:40:07;102212.16;;;14.28;51.36
62600;BME280;48671;48.922;2.346;2023-05-03T07:42:34;102221.44;;;14.38;51.22
62600;BME280;48671;48.922;2.346;2023-05-03T07:44:59;102209.75;;;14.48;51.52
62600;BME280;48671;48.922;2.346;2023-05-03T07:47:25;102209.38;;;14.62;50.73
62600;BME280;48671;48.922;2.346;2023-05-03T07:49:51;102209.88;;;14.73;50.46
62600;BME280;48671;48.922;2.346;2023-05-03T07:52:17;102188.06;;;14.73;50.22
62600;BME280;48671;48.922;2.346;2023-05-03T07:54:42;102190.41;;;14.82;49.89
62600;BME280;48671;48.922;2.346;2023-05-03T07:57:10;102188.22;;;14.95;50.02
62600;BME280;48671;48.922;2.346;2023-05-03T07:59:35;102189.53;;;15.08;50.34
62600;BME280;48671;48.922;2.346;2023-05-03T08:02:00;102195.09;;;15.24;50.42
62600;BME280;48671;48.922;2.346;2023-05-03T08:04:26;102194.75;;;15.33;49.34
62600;BME280;48671;48.922;2.346;2023-05-03T08:06:51;102183.50;;;15.31;49.60
62600;BME280;48671;48.922;2.346;2023-05-03T08:09:16;102184.78;;;15.44;49.77
62600;BME280;48671;48.922;2.346;2023-05-03T08:11:42;102171.44;;;15.51;49.44
62600;BME280;48671;48.922;2.346;2023-05-03T08:14:08;102190.06;;;15.68;49.41
62600;BME280;48671;48.922;2.346;2023-05-03T08:16:34;102174.22;;;15.71;49.13
62600;BME280;48671;48.922;2.346;2023-05-03T08:18:59;102180.72;;;15.84;49.38
62600;BME280;48671;48.922;2.346;2023-05-03T08:21:24;102181.03;;;15.99;49.82
62600;BME280;48671;48.922;2.346;2023-05-03T08:23:50;102169.41;;;16.06;47.72
62600;BME280;48671;48.922;2.346;2023-05-03T08:26:15;102176.44;;;16.27;48.07
62600;BME280;48671;48.922;2.346;2023-05-03T08:28:41;102173.34;;;16.61;48.22
62600;BME280;48671;48.922;2.346;2023-05-03T08:31:06;102163.94;;;16.98;47.26
62600;BME280;48671;48.922;2.346;2023-05-03T08:33:32;102156.09;;;17.38;47.25
62600;BME280;48671;48.922;2.346;2023-05-03T08:35:57;102178.41;;;17.68;46.36
62600;BME280;48671;48.922;2.346;2023-05-03T08:38:23;102170.50;;;17.89;46.29
62600;BME280;48671;48.922;2.346;2023-05-03T08:40:50;102167.22;;;18.02;44.82
62600;BME280;48671;48.922;2.346;2023-05-03T08:43:19;102164.03;;;18.15;44.69
62600;BME280;48671;48.922;2.346;2023-05-03T08:45:44;102150.66;;;18.18;44.61
62600;BME280;48671;48.922;2.346;2023-05-03T08:48:10;102153.50;;;18.32;44.90
62600;BME280;48671;48.922;2.346;2023-05-03T08:50:37;102166.44;;;18.37;43.64
62600;BME280;48671;48.922;2.346;2023-05-03T08:53:07;102156.34;;;18.28;44.45
62600;BME280;48671;48.922;2.346;2023-05-03T08:55:32;102160.72;;;18.29;43.92
62600;BME280;48671;48.922;2.346;2023-05-03T08:58:05;102165.03;;;18.30;42.98
62600;BME280;48671;48.922;2.346;2023-05-03T09:00:34;102163.13;;;18.33;43.87
62600;BME280;48671;48.922;2.346;2023-05-03T09:03:00;102160.78;;;18.27;43.37
62600;BME280;48671;48.922;2.346;2023-05-03T09:05:35;102158.38;;;18.22;43.73
62600;BME280;48671;48.922;2.346;2023-05-03T09:08:07;102152.97;;;18.07;44.22
62600;BME280;48671;48.922;2.346;2023-05-03T09:10:41;102159.50;;;17.98;44.13
62600;BME280;48671;48.922;2.346;2023-05-03T09:13:07;102155.28;;;17.95;44.54
62600;BME280;48671;48.922;2.346;2023-05-03T09:15:34;102149.88;;;17.98;43.94
62600;BME280;48671;48.922;2.346;2023-05-03T09:18:26;102146.06;;;18.04;43.66
62600;BME280;48671;48.922;2.346;2023-05-03T09:20:51;102131.19;;;18.03;44.38
62600;BME280;48671;48.922;2.346;2023-05-03T09:23:19;102133.53;;;18.09;44.16
62600;BME280;48671;48.922;2.346;2023-05-03T09:25:56;102147.84;;;18.22;44.01
62600;BME280;48671;48.922;2.346;2023-05-03T09:28:21;102148.25;;;18.32;45.08
62600;BME280;48671;48.922;2.346;2023-05-03T09:30:48;102135.31;;;18.45;42.56
62600;BME280;48671;48.922;2.346;2023-05-03T09:33:14;102139.41;;;18.51;43.33
62600;BME280;48671;48.922;2.346;2023-05-03T09:35:56;102134.41;;;18.63;43.67
62600;BME280;48671;48.922;2.346;2023-05-03T09:38:26;102147.63;;;18.81;43.29
62600;BME280;48671;48.922;2.346;2023-05-03T09:40:52;102140.13;;;18.90;42.61
62600;BME280;48671;48.922;2.346;2023-05-03T09:43:17;102143.75;;;18.88;40.83
62600;BME280;48671;48.922;2.346;2023-05-03T09:45:42;102133.41;;;18.83;41.02
62600;BME280;48671;48.922;2.346;2023-05-03T09:48:08;102118.31;;;18.87;42.17
62600;BME280;48671;48.922;2.346;2023-05-03T09:50:35;102135.06;;;19.03;40.38
62600;BME280;48671;48.922;2.346;2023-05-03T09:53:05;102134.72;;;19.09;40.89
62600;BME280;48671;48.922;2.346;2023-05-03T09:55:39;102123.47;;;19.06;41.09
62600;BME280;48671;48.922;2.346;2023-05-03T09:58:06;102125.97;;;19.09;41.46
62600;BME280;48671;48.922;2.346;2023-05-03T10:00:39;102130.69;;;19.20;40.94
62600;BME280;48671;48.922;2.346;2023-05-03T10:03:07;102126.00;;;19.25;41.50
62600;BME280;48671;48.922;2.346;2023-05-03T10:05:46;102118.41;;;19.36;40.26
62600;BME280;48671;48.922;2.346;2023-05-03T10:08:20;102119.97;;;19.56;41.33
62600;BME280;48671;48.922;2.346;2023-05-03T10:10:48;102120.69;;;19.75;41.57
62600;BME280;48671;48.922;2.346;2023-05-03T10:13:16;102109.69;;;19.83;40.05
62600;BME280;48671;48.922;2.346;2023-05-03T10:15:42;102113.88;;;19.87;40.97
62600;BME280;48671;48.922;2.346;2023-05-03T10:18:12;102111.91;;;20.06;39.75
62600;BME280;48671;48.922;2.346;2023-05-03T10:20:44;102100.81;;;20.16;40.44
62600;BME280;48671;48.922;2.346;2023-05-03T10:23:14;102093.56;;;20.19;40.19
62600;BME280;48671;48.922;2.346;2023-05-03T10:28:41;102089.25;;;20.32;39.97
62600;BME280;48671;48.922;2.346;2023-05-03T10:31:45;102099.78;;;20.34;38.91
62600;BME280;48671;48.922;2.346;2023-05-03T10:34:22;102086.09;;;20.42;39.71
62600;BME280;48671;48.922;2.346;2023-05-03T10:36:48;102090.91;;;20.49;39.56
62600;BME280;48671;48.922;2.346;2023-05-03T10:39:15;102074.00;;;20.68;39.52
62600;BME280;48671;48.922;2.346;2023-05-03T10:41:40;102072.81;;;20.88;39.56
62600;BME280;48671;48.922;2.346;2023-05-03T10:44:24;102073.66;;;21.02;39.89
62600;BME280;48671;48.922;2.346;2023-05-03T10:46:52;102073.56;;;21.18;39.36
62600;BME280;48671;48.922;2.346;2023-05-03T10:49:20;102065.47;;;21.36;38.27
62600;BME280;48671;48.922;2.346;2023-05-03T10:51:45;102060.25;;;21.48;39.18
62600;BME280;48671;48.922;2.346;2023-05-03T10:54:11;102056.72;;;21.62;38.56
62600;BME280;48671;48.922;2.346;2023-05-03T10:56:54;102054.72;;;21.66;38.05
62600;BME280;48671;48.922;2.346;2023-05-03T10:59:21;102053.13;;;21.63;38.44
62600;BME280;48671;48.922;2.346;2023-05-03T11:01:49;102043.75;;;21.72;38.42
62600;BME280;48671;48.922;2.346;2023-05-03T11:04:35;102042.19;;;21.82;37.07
62600;BME280;48671;48.922;2.346;2023-05-03T11:07:03;102035.72;;;21.86;37.89
62600;BME280;48671;48.922;2.346;2023-05-03T11:09:30;102034.28;;;21.95;37.68
62600;BME280;48671;48.922;2.346;2023-05-03T11:11:56;102033.13;;;21.99;36.16
62600;BME280;48671;48.922;2.346;2023-05-03T11:14:22;102034.69;;;21.89;36.58
62600;BME280;48671;48.922;2.346;2023-05-03T11:16:47;102024.53;;;21.95;37.55
62600;BME280;48671;48.922;2.346;2023-05-03T11:19:15;102019.16;;;22.10;37.82
62600;BME280;48671;48.922;2.346;2023-05-03T11:21:41;102013.00;;;22.24;36.66
62600;BME280;48671;48.922;2.346;2023-05-03T11:24:07;102007.38;;;22.28;36.84
62600;BME280;48671;48.922;2.346;2023-05-03T11:26:36;102007.25;;;22.30;36.10
62600;BME280;48671;48.922;2.346;2023-05-03T11:29:02;102008.97;;;22.31;35.98
62600;BME280;48671;48.922;2.346;2023-05-03T11:31:28;102003.69;;;22.43;36.35
62600;BME280;48671;48.922;2.346;2023-05-03T11:33:53;102003.25;;;22.37;35.51
62600;BME280;48671;48.922;2.346;2023-05-03T11:36:19;102001.84;;;22.31;36.12
62600;BME280;48671;48.922;2.346;2023-05-03T11:38:44;101995.38;;;22.35;36.24
62600;BME280;48671;48.922;2.346;2023-05-03T11:41:15;101995.50;;;22.47;35.94
62600;BME280;48671;48.922;2.346;2023-05-03T11:43:42;101993.16;;;22.55;36.20
62600;BME280;48671;48.922;2.346;2023-05-03T11:46:08;101987.75;;;22.69;36.35
62600;BME280;48671;48.922;2.346;2023-05-03T11:48:34;101973.53;;;22.70;36.14
62600;BME280;48671;48.922;2.346;2023-05-03T11:51:06;101969.28;;;22.80;35.07
62600;BME280;48671;48.922;2.346;2023-05-03T11:53:32;101965.00;;;22.90;35.39
62600;BME280;48671;48.922;2.346;2023-05-03T11:55:57;101965.44;;;22.84;34.40
62600;BME280;48671;48.922;2.346;2023-05-03T11:58:25;101950.16;;;22.88;35.82
62600;BME280;48671;48.922;2.346;2023-05-03T12:00:53;101962.38;;;23.03;35.48
62600;BME280;48671;48.922;2.346;2023-05-03T12:03:20;101953.31;;;23.19;35.52
62600;BME280;48671;48.922;2.346;2023-05-03T12:05:47;101950.94;;;23.27;35.73
62600;BME280;48671;48.922;2.346;2023-05-03T12:08:13;101950.88;;;23.40;35.04
62600;BME280;48671;48.922;2.346;2023-05-03T12:10:40;101943.94;;;23.50;34.37
62600;BME280;48671;48.922;2.346;2023-05-03T12:13:05;101936.81;;;23.50;34.46
62600;BME280;48671;48.922;2.346;2023-05-03T12:15:35;101932.97;;;23.54;34.93
62600;BME280;48671;48.922;2.346;2023-05-03T12:18:06;101925.69;;;23.69;34.95
62600;BME280;48671;48.922;2.346;2023-05-03T12:20:33;101931.53;;;23.86;34.43
62600;BME280;48671;48.922;2.346;2023-05-03T12:23:02;101934.19;;;23.86;33.93
62600;BME280;48671;48.922;2.346;2023-05-03T12:25:29;101920.69;;;23.89;34.57
62600;BME280;48671;48.922;2.346;2023-05-03T12:27:56;101924.97;;;24.14;34.89
62600;BME280;48671;48.922;2.346;2023-05-03T12:30:22;101936.94;;;24.08;34.47
62600;BME280;48671;48.922;2.346;2023-05-03T12:32:48;101918.09;;;24.11;33.59
62600;BME280;48671;48.922;2.346;2023-05-03T12:35:13;101921.22;;;24.16;33.95
62600;BME280;48671;48.922;2.346;2023-05-03T12:37:39;101906.09;;;24.05;33.54
62600;BME280;48671;48.922;2.346;2023-05-03T12:40:05;101902.47;;;24.06;33.16
62600;BME280;48671;48.922;2.346;2023-05-03T12:42:31;101906.00;;;24.18;33.60
62600;BME280;48671;48.922;2.346;2023-05-03T12:44:59;101893.81;;;24.27;34.29
62600;BME280;48671;48.922;2.346;2023-05-03T12:47:26;101899.41;;;24.46;34.29
62600;BME280;48671;48.922;2.346;2023-05-03T12:49:52;101897.34;;;24.61;34.21
62600;BME280;48671;48.922;2.346;2023-05-03T12:52:18;101892.88;;;24.73;32.90
62600;BME280;48671;48.922;2.346;2023-05-03T12:54:44;101894.44;;;24.75;33.05
62600;BME280;48671;48.922;2.346;2023-05-03T12:57:11;101886.44;;;24.87;33.61
62600;BME280;48671;48.922;2.346;2023-05-03T12:59:37;101885.44;;;24.99;32.52